Time;durP1;ratioP1;P1;durP2;ratioP2;P2;SDS_P1;SDS_P2;PMS_P1;PMS_P2;Temp;Humidity;BMP_temperature;BMP_pressure;BME280_temperature;BME280_humidity;BME280_pressure;Samples;Min_cycle;Max_cycle;Signal;HPM_P1;HPM_P2
2022/12/11 00:03:47;;;;;;;41.20;20.35;;;;;;;-0.50;68.98;100006.63;10448464;28;20057;-81
2022/12/11 00:08:52;;;;;;;43.70;22.08;;;;;;;-0.53;68.63;100007.63;10449092;28;20072;-80
2022/12/11 00:13:56;;;;;;;45.45;21.77;;;;;;;-0.55;68.72;100004.22;10447689;28;20049;-80
2022/12/11 00:18:59;;;;;;;43.33;23.00;;;;;;;-0.73;68.85;100000.53;10447118;28;20071;-80
2022/12/11 00:24:02;;;;;;;42.38;20.38;;;;;;;-0.83;69.12;100012.34;10448129;28;20049;-79
2022/12/11 00:29:07;;;;;;;45.08;22.20;;;;;;;-0.63;68.64;100006.31;10446409;28;20408;-80
2022/12/11 00:34:10;;;;;;;42.20;20.77;;;;;;;-0.54;68.40;99998.00;10446001;28;20034;-79
2022/12/11 00:39:13;;;;;;;42.45;20.90;;;;;;;-0.61;68.29;99993.88;10445393;28;20391;-79
2022/12/11 00:44:18;;;;;;;35.30;18.83;;;;;;;-0.62;68.88;99991.31;10446687;28;20120;-80
2022/12/11 00:49:20;;;;;;;40.45;21.38;;;;;;;-0.58;68.89;99996.38;10445563;28;20052;-80
2022/12/11 00:54:23;;;;;;;41.40;20.92;;;;;;;-0.52;68.62;99988.25;10446392;28;20056;-79
2022/12/11 00:59:28;;;;;;;42.25;19.05;;;;;;;-0.50;68.76;100002.22;10443494;28;20045;-80
2022/12/11 01:04:31;;;;;;;44.03;20.20;;;;;;;-0.51;68.56;100008.41;10444224;28;20045;-79
2022/12/11 01:14:55;;;;;;;42.85;21.67;;;;;;;-0.42;68.94;100016.88;10421739;28;20046;-80
2022/12/11 01:19:58;;;;;;;41.85;20.08;;;;;;;-0.47;68.70;100011.78;10420800;28;20510;-80
2022/12/11 01:25:01;;;;;;;44.13;21.20;;;;;;;-0.60;69.35;100013.22;10407956;28;20072;-80
2022/12/11 01:30:08;;;;;;;47.45;22.50;;;;;;;-0.56;69.57;100014.81;10402946;28;20041;-79
2022/12/11 01:35:12;;;;;;;62.97;24.95;;;;;;;-0.58;69.91;100014.00;10413813;28;20065;-80
2022/12/11 01:40:17;;;;;;;69.10;27.23;;;;;;;-0.63;71.00;100011.56;10411897;28;20049;-80
2022/12/11 01:45:35;;;;;;;70.82;27.70;;;;;;;-0.59;71.03;100014.94;10419572;28;20140;-79
2022/12/11 01:50:42;;;;;;;81.35;28.15;;;;;;;-0.68;71.51;100015.31;10415666;28;20049;-80
2022/12/11 01:55:46;;;;;;;84.78;31.63;;;;;;;-0.64;71.52;100014.25;10420103;28;20109;-80
2022/12/11 02:00:51;;;;;;;78.55;28.40;;;;;;;-0.79;72.27;100003.41;10437402;28;20041;-78
2022/12/11 02:05:55;;;;;;;75.10;30.38;;;;;;;-0.75;72.56;100005.00;10430229;28;20237;-78
2022/12/11 02:11:06;;;;;;;66.95;27.10;;;;;;;-0.62;72.21;100005.38;10418225;28;20057;-79
2022/12/11 02:16:19;;;;;;;72.80;27.23;;;;;;;-0.64;71.98;99999.28;10435165;28;20038;-80
2022/12/11 02:21:26;;;;;;;71.05;27.52;;;;;;;-0.70;72.37;99990.78;10403979;23;20038;-79
2022/12/11 02:26:55;;;;;;;71.55;26.63;;;;;;;-0.59;72.10;99988.56;10337062;28;20201;-77
2022/12/11 02:32:04;;;;;;;83.75;29.17;;;;;;;-0.69;72.77;99997.75;10311571;28;20586;-77
2022/12/11 02:37:12;;;;;;;85.25;29.83;;;;;;;-0.68;73.17;99992.44;10315722;28;20049;-77
2022/12/11 02:42:16;;;;;;;91.32;33.30;;;;;;;-0.60;73.04;99981.56;10325709;28;20134;-76
2022/12/11 02:47:21;;;;;;;91.57;32.55;;;;;;;-0.56;73.95;99984.00;10331861;28;20046;-79
2022/12/11 02:52:26;;;;;;;95.68;33.13;;;;;;;-0.50;73.17;99972.31;10297747;28;20070;-76
2022/12/11 02:57:34;;;;;;;97.07;31.20;;;;;;;-0.45;73.19;99980.06;10315002;28;20130;-77
2022/12/11 03:02:41;;;;;;;98.82;33.95;;;;;;;-0.48;73.59;99981.06;10336078;28;20070;-77
2022/12/11 03:07:44;;;;;;;104.63;34.50;;;;;;;-0.43;73.73;99980.88;10321188;28;20060;-77
2022/12/11 03:12:50;;;;;;;97.25;33.58;;;;;;;-0.46;73.50;99981.00;10313683;28;20509;-77
2022/12/11 03:18:04;;;;;;;109.00;34.00;;;;;;;-0.44;74.09;99977.34;10311789;28;20053;-78
2022/12/11 03:23:20;;;;;;;115.28;36.78;;;;;;;-0.39;73.63;99978.00;10298824;28;20655;-78
2022/12/11 03:28:29;;;;;;;117.07;35.92;;;;;;;-0.37;73.93;99975.31;10306266;28;20117;-77
2022/12/11 03:33:37;;;;;;;93.07;31.30;;;;;;;-0.48;74.19;99983.69;10329109;28;20125;-78
2022/12/11 03:38:47;;;;;;;102.50;34.35;;;;;;;-0.45;74.25;99978.28;10310563;28;20090;-77
2022/12/11 03:43:54;;;;;;;95.50;32.72;;;;;;;-0.50;74.07;99982.88;10323611;28;20082;-77
2022/12/11 03:49:01;;;;;;;102.15;35.05;;;;;;;-0.64;74.77;99983.47;10319422;28;20141;-78
2022/12/11 03:54:05;;;;;;;98.32;33.97;;;;;;;-0.56;74.88;99988.41;10309994;28;20551;-78
2022/12/11 03:59:08;;;;;;;102.78;33.30;;;;;;;-0.59;74.98;99983.28;10309276;28;20495;-78
2022/12/11 04:04:13;;;;;;;102.10;34.08;;;;;;;-0.60;75.51;99977.16;10315765;28;20042;-78
2022/12/11 04:09:15;;;;;;;113.88;35.85;;;;;;;-0.59;76.42;99984.13;10321901;28;20478;-78
2022/12/11 04:25:00;;;;;;;109.93;37.83;;;;;;;-0.79;77.66;99992.88;10306801;28;20066;-76
2022/12/11 04:30:05;;;;;;;113.80;38.75;;;;;;;-0.86;78.26;99985.25;10328850;28;20078;-78
2022/12/11 04:35:11;;;;;;;113.90;40.35;;;;;;;-0.85;78.45;99993.13;10321361;28;20074;-78
2022/12/11 04:40:17;;;;;;;117.80;38.67;;;;;;;-0.83;78.47;99987.75;10332902;28;20113;-78
2022/12/11 04:45:20;;;;;;;115.63;37.10;;;;;;;-0.83;78.98;99980.72;10324579;28;20050;-77
2022/12/11 04:50:24;;;;;;;118.65;39.30;;;;;;;-0.84;79.29;99980.78;10326178;28;20143;-78
2022/12/11 04:55:27;;;;;;;122.53;40.20;;;;;;;-0.77;79.47;99975.22;10295110;28;20133;-78
2022/12/11 05:00:30;;;;;;;128.07;40.22;;;;;;;-0.74;79.26;99968.91;10297686;28;20043;-77
2022/12/11 05:05:34;;;;;;;130.07;39.78;;;;;;;-0.77;79.19;99971.69;10317730;28;20133;-77
2022/12/11 05:10:37;;;;;;;110.78;40.15;;;;;;;-0.77;79.22;99974.31;10302614;28;20125;-77
2022/12/11 05:15:40;;;;;;;132.45;40.40;;;;;;;-0.74;79.95;99966.28;10310393;28;20134;-79
2022/12/11 05:20:44;;;;;;;136.05;39.38;;;;;;;-0.65;79.74;99965.06;10294629;28;20051;-77
2022/12/11 05:25:51;;;;;;;117.68;38.00;;;;;;;-0.64;79.85;99972.06;10315599;28;20129;-77
2022/12/11 05:30:57;;;;;;;130.45;41.33;;;;;;;-0.59;79.57;99973.56;10319575;28;20062;-77
2022/12/11 05:36:02;;;;;;;127.93;39.45;;;;;;;-0.63;79.49;99965.84;10334329;28;20038;-77
2022/12/11 05:41:06;;;;;;;121.50;38.83;;;;;;;-0.59;79.85;99963.03;10331807;28;20137;-77
2022/12/11 05:46:12;;;;;;;152.27;40.63;;;;;;;-0.48;79.64;99967.84;10319557;28;20079;-78
2022/12/11 05:51:18;;;;;;;134.50;42.72;;;;;;;-0.42;79.50;99958.81;10331221;28;20101;-77
2022/12/11 05:56:25;;;;;;;127.05;40.30;;;;;;;-0.40;79.61;99960.47;10306216;28;20051;-77
2022/12/11 06:01:30;;;;;;;127.00;38.72;;;;;;;-0.52;78.81;99963.66;10302720;28;20074;-77
2022/12/11 06:06:35;;;;;;;107.03;37.15;;;;;;;-0.51;79.38;99966.19;10330913;28;20406;-78
2022/12/11 06:11:38;;;;;;;125.45;37.03;;;;;;;-0.52;79.16;99958.38;10316099;28;20057;-78
2022/12/11 06:16:41;;;;;;;119.32;39.17;;;;;;;-0.52;79.17;99963.66;10324693;28;20070;-77
2022/12/11 06:21:47;;;;;;;110.07;37.10;;;;;;;-0.49;79.05;99958.22;10318544;28;20514;-78
2022/12/11 06:26:50;;;;;;;109.70;36.15;;;;;;;-0.44;78.99;99950.09;10305386;28;20097;-77
2022/12/11 06:31:53;;;;;;;117.40;40.05;;;;;;;-0.36;79.17;99953.28;10333501;28;20073;-78
2022/12/11 06:36:57;;;;;;;107.85;38.05;;;;;;;-0.51;78.95;99954.78;10300697;28;20487;-77
2022/12/11 06:42:00;;;;;;;120.43;40.47;;;;;;;-0.56;78.88;99952.34;10333146;28;20042;-78
2022/12/11 06:47:04;;;;;;;102.53;33.72;;;;;;;-0.68;78.78;99952.00;10304767;28;20407;-78
2022/12/11 06:52:08;;;;;;;108.15;38.05;;;;;;;-0.69;79.37;99948.50;10326090;28;20066;-77
2022/12/11 06:57:18;;;;;;;110.80;38.03;;;;;;;-0.67;78.85;99946.66;10311468;28;20047;-77
2022/12/11 07:02:21;;;;;;;92.78;29.63;;;;;;;-1.02;78.16;99954.22;10311366;28;20043;-77
2022/12/11 07:07:25;;;;;;;95.13;30.77;;;;;;;-0.66;77.74;99955.41;10336737;28;20066;-76
2022/12/11 07:12:28;;;;;;;84.18;28.08;;;;;;;-0.46;77.55;99962.53;10336137;28;20141;-78
2022/12/11 07:17:31;;;;;;;77.72;27.20;;;;;;;-0.47;75.90;99951.09;10341571;28;20053;-77
2022/12/11 07:22:35;;;;;;;71.88;24.60;;;;;;;-0.57;75.56;99957.69;10322027;28;20581;-77
2022/12/11 07:27:44;;;;;;;75.40;25.48;;;;;;;-0.59;75.17;99967.44;10295764;28;20726;-77
2022/12/11 07:32:47;;;;;;;70.10;24.00;;;;;;;-0.72;74.73;99967.09;10313991;28;20050;-77
2022/12/11 07:37:51;;;;;;;62.63;22.90;;;;;;;-0.98;73.28;99965.53;10311708;28;20059;-77
2022/12/11 07:42:54;;;;;;;62.88;21.35;;;;;;;-0.84;73.01;99972.88;10307516;28;20082;-77
2022/12/11 07:47:57;;;;;;;50.20;19.40;;;;;;;-0.88;71.84;99974.75;10329810;28;20137;-77
2022/12/11 07:53:02;;;;;;;67.20;20.58;;;;;;;-0.79;71.31;99977.03;10328729;28;20126;-77
2022/12/11 07:58:04;;;;;;;60.08;20.27;;;;;;;-1.00;72.36;99980.53;10322187;28;20043;-78
2022/12/11 08:03:07;;;;;;;59.22;20.98;;;;;;;-1.15;71.86;99986.41;10328332;28;20046;-77
2022/12/11 08:08:11;;;;;;;52.60;17.30;;;;;;;-0.61;71.05;99985.13;10315813;28;20072;-78
2022/12/11 08:13:15;;;;;;;63.28;19.40;;;;;;;-0.68;70.52;99987.16;10348930;28;20049;-79
2022/12/11 08:18:17;;;;;;;60.22;20.13;;;;;;;-0.77;71.52;99971.69;10377977;28;20043;-77
2022/12/11 08:23:22;;;;;;;60.55;19.63;;;;;;;-0.74;71.94;99968.91;10379923;28;20046;-77
2022/12/11 08:28:24;;;;;;;60.00;19.25;;;;;;;-0.87;72.34;99978.28;10367807;28;20034;-79
2022/12/11 08:33:29;;;;;;;65.22;20.38;;;;;;;-0.70;71.28;99974.94;10369210;28;20049;-79
2022/12/11 08:38:33;;;;;;;63.08;15.80;;;;;;;-0.42;72.72;99978.16;10347629;28;20049;-81
2022/12/11 08:43:36;;;;;;;76.97;22.95;;;;;;;-0.29;70.65;99982.00;10336294;28;20066;-80
2022/12/11 08:48:41;;;;;;;59.65;20.00;;;;;;;-0.39;69.41;99982.44;10328502;28;20062;-78
2022/12/11 08:53:45;;;;;;;62.42;20.20;;;;;;;-0.76;69.27;99987.47;10345847;28;20045;-78
2022/12/11 08:58:48;;;;;;;50.05;17.17;;;;;;;-1.19;70.92;99991.78;10350727;28;20035;-79
2022/12/11 09:03:52;;;;;;;61.50;19.75;;;;;;;-0.53;69.97;99985.66;10325716;28;20116;-79
2022/12/11 09:08:59;;;;;;;63.03;19.95;;;;;;;-0.30;68.88;99984.72;10350432;28;20046;-79
2022/12/11 09:14:02;;;;;;;54.92;18.77;;;;;;;-0.16;68.86;99978.84;10348343;28;20578;-78
2022/12/11 09:19:13;;;;;;;64.03;19.70;;;;;;;-0.15;68.79;99985.81;10342288;28;20038;-79
2022/12/11 09:24:17;;;;;;;61.47;19.67;;;;;;;-0.07;69.58;99986.34;10346488;28;20067;-78
2022/12/11 09:29:20;;;;;;;61.08;19.90;;;;;;;-0.11;68.61;99985.63;10342807;28;20154;-78
2022/12/11 09:34:23;;;;;;;56.45;19.77;;;;;;;-0.03;68.93;99972.06;10350180;28;20074;-79
2022/12/11 09:39:32;;;;;;;66.55;19.98;;;;;;;0.01;68.83;99963.09;10349595;28;20037;-79
2022/12/11 09:44:42;;;;;;;55.72;19.58;;;;;;;0.09;68.93;99952.22;10345354;28;20099;-79
2022/12/11 09:49:46;;;;;;;54.47;19.70;;;;;;;0.05;68.10;99958.53;10346945;28;20058;-79
2022/12/11 09:54:55;;;;;;;55.90;19.67;;;;;;;0.06;68.16;99960.28;10363657;28;20054;-79
2022/12/11 10:00:16;;;;;;;57.53;19.05;;;;;;;0.11;68.20;99959.16;10337282;28;20042;-79
2022/12/11 10:05:28;;;;;;;61.83;20.52;;;;;;;0.02;67.75;99950.75;10345656;28;20042;-79
2022/12/11 10:10:40;;;;;;;64.25;20.20;;;;;;;-0.15;68.25;99955.00;10342684;28;20496;-78
2022/12/11 10:15:49;;;;;;;76.15;24.85;;;;;;;-0.09;68.42;99967.91;10343135;28;20739;-79
2022/12/11 10:20:53;;;;;;;64.32;18.52;;;;;;;-0.32;68.55;99954.88;10348737;28;20054;-79
2022/12/11 10:26:05;;;;;;;61.30;21.00;;;;;;;-0.24;68.60;99939.56;10347285;28;20046;-80
2022/12/11 10:31:16;;;;;;;55.72;18.85;;;;;;;0.01;68.74;99941.97;10361676;28;20065;-80
2022/12/11 10:36:27;;;;;;;58.20;19.48;;;;;;;-0.05;68.41;99942.25;10340980;28;20054;-79
2022/12/11 10:41:38;;;;;;;58.83;18.38;;;;;;;0.04;68.80;99936.56;10315817;28;20116;-78
2022/12/11 10:46:41;;;;;;;57.88;19.38;;;;;;;-0.20;69.11;99938.50;10294013;28;20422;-79
2022/12/11 10:51:44;;;;;;;58.97;16.00;;;;;;;-0.30;69.79;99932.78;10306541;28;21220;-78
2022/12/11 10:56:50;;;;;;;58.70;18.45;;;;;;;-0.24;70.21;99934.28;10295416;28;20046;-80
2022/12/11 11:01:53;;;;;;;48.55;17.15;;;;;;;-0.51;70.75;99938.97;10283171;28;21342;-79
2022/12/11 11:07:11;;;;;;;58.50;18.63;;;;;;;-0.69;72.08;99943.22;10304859;28;20066;-78
2022/12/11 11:12:21;;;;;;;57.08;17.70;;;;;;;-0.39;70.96;99943.69;10305819;28;20050;-79
2022/12/11 11:17:24;;;;;;;56.78;18.77;;;;;;;-0.30;71.30;99945.13;10279348;28;20106;-80
2022/12/11 11:22:32;;;;;;;55.58;17.88;;;;;;;-0.29;70.98;99937.13;10283491;28;20051;-80
2022/12/11 11:27:43;;;;;;;57.38;19.58;;;;;;;-0.51;71.91;99933.69;10297239;28;20851;-78
2022/12/11 11:32:46;;;;;;;58.17;19.63;;;;;;;-0.47;71.88;99932.63;10306609;28;20113;-80
2022/12/11 11:37:58;;;;;;;51.33;21.20;;;;;;;-0.64;72.17;99922.78;10288536;28;20054;-79
2022/12/11 11:43:16;;;;;;;47.03;18.45;;;;;;;-0.65;72.12;99930.78;10273497;28;20105;-79
2022/12/11 11:48:36;;;;;;;53.72;21.52;;;;;;;-0.82;72.93;99927.06;10313730;28;20050;-79
2022/12/11 11:53:40;;;;;;;41.97;18.35;;;;;;;-0.44;72.96;99927.22;10350793;28;20061;-78
2022/12/11 11:58:54;;;;;;;49.78;20.05;;;;;;;-1.02;73.78;99929.63;10349167;28;20130;-79
2022/12/11 12:03:58;;;;;;;57.53;23.63;;;;;;;-0.60;74.06;99923.53;10334091;28;20239;-78
2022/12/11 12:09:14;;;;;;;43.45;18.10;;;;;;;-0.77;74.16;99921.56;10318632;28;20050;-78
2022/12/11 12:14:24;;;;;;;41.75;18.83;;;;;;;-0.73;74.13;99912.63;10318244;28;20042;-79
2022/12/11 12:19:56;;;;;;;51.70;21.48;;;;;;;-0.46;73.64;99904.47;10314228;28;20399;-78
2022/12/11 12:25:02;;;;;;;;;;;;;;;-0.44;72.57;99899.97;10342141;28;21211;-79
2022/12/11 12:30:11;;;;;;;49.35;20.50;;;;;;;-0.56;72.62;99899.56;10366304;28;19992;-79
2022/12/11 12:35:35;;;;;;;44.70;17.77;;;;;;;-0.45;72.35;99907.03;10353195;28;20050;-79
2022/12/11 12:40:48;;;;;;;43.95;20.10;;;;;;;-0.38;71.80;99894.44;10351032;28;20054;-79
2022/12/11 12:46:06;;;;;;;48.30;19.70;;;;;;;-0.62;72.92;99896.34;10362829;28;20192;-79
2022/12/11 12:51:13;;;;;;;45.38;18.92;;;;;;;-0.83;72.94;99906.88;10354234;28;20050;-79
2022/12/11 12:56:17;;;;;;;43.65;19.00;;;;;;;-0.40;72.14;99899.78;10350186;28;20042;-79
2022/12/11 13:01:22;;;;;;;40.25;16.17;;;;;;;-0.27;71.61;99900.09;10405574;28;20041;-79
2022/12/11 13:06:30;;;;;;;33.92;15.18;;;;;;;-0.33;71.20;99895.97;10369231;28;20054;-79
2022/12/11 13:11:35;;;;;;;33.10;15.60;;;;;;;-0.18;70.86;99894.41;10362019;28;20114;-79
2022/12/11 13:16:42;;;;;;;35.15;16.85;;;;;;;-0.18;71.15;99891.78;10352225;28;20065;-78
2022/12/11 13:21:55;;;;;;;33.45;14.75;;;;;;;-0.08;70.79;99893.09;10372657;28;20503;-79
2022/12/11 13:27:09;;;;;;;34.92;15.30;;;;;;;-0.02;71.19;99894.59;10356422;28;20456;-79
2022/12/11 13:32:24;;;;;;;33.83;15.05;;;;;;;0.00;71.35;99898.03;10352531;28;20046;-79
2022/12/11 13:37:33;;;;;;;32.72;15.13;;;;;;;-0.01;71.59;99883.09;10349743;28;20051;-79
2022/12/11 13:42:44;;;;;;;34.08;16.25;;;;;;;0.02;71.53;99884.72;10351904;28;20136;-79
2022/12/11 13:47:48;;;;;;;31.83;14.65;;;;;;;0.08;71.63;99892.38;10347328;28;20049;-78
2022/12/11 13:52:55;;;;;;;28.42;11.95;;;;;;;0.01;71.19;99881.25;10332415;28;20046;-79
2022/12/11 13:57:58;;;;;;;29.80;12.60;;;;;;;0.06;71.12;99895.09;10331556;28;20133;-79
2022/12/11 14:03:07;;;;;;;28.42;13.65;;;;;;;0.11;71.34;99893.13;10318177;28;20054;-79
2022/12/11 14:08:12;;;;;;;38.63;16.52;;;;;;;0.07;71.35;99886.25;10331957;28;20062;-80
2022/12/11 14:13:22;;;;;;;39.53;17.30;;;;;;;0.04;71.36;99889.03;10324564;28;20082;-79
2022/12/11 14:18:29;;;;;;;40.47;17.77;;;;;;;-0.00;71.63;99886.59;10333969;28;20077;-79
2022/12/11 14:23:33;;;;;;;40.20;19.00;;;;;;;-0.01;72.12;99896.28;10328094;28;20545;-78
2022/12/11 14:28:41;;;;;;;43.22;18.92;;;;;;;-0.01;72.44;99901.56;10330562;28;20050;-78
2022/12/11 14:33:49;;;;;;;41.30;19.52;;;;;;;-0.07;72.12;99908.00;10320767;28;20046;-79
2022/12/11 14:38:57;;;;;;;40.78;17.30;;;;;;;-0.03;72.27;99906.06;10334181;28;20056;-79
2022/12/11 14:44:04;;;;;;;37.92;16.33;;;;;;;-0.08;72.43;99908.06;10346671;28;20141;-79
2022/12/11 14:49:20;;;;;;;38.70;17.63;;;;;;;-0.13;72.55;99904.78;10347491;28;20053;-78
2022/12/11 14:54:29;;;;;;;34.63;15.60;;;;;;;-0.11;72.87;99908.19;10359929;28;20030;-78
2022/12/11 14:59:39;;;;;;;35.70;16.60;;;;;;;-0.14;73.36;99908.31;10354404;28;20086;-79
2022/12/11 15:04:44;;;;;;;34.60;16.25;;;;;;;-0.34;73.37;99906.56;10332608;28;20049;-79
2022/12/11 15:09:47;;;;;;;36.95;16.35;;;;;;;-0.33;73.60;99909.16;10335967;28;20517;-79
2022/12/11 15:14:51;;;;;;;36.58;15.65;;;;;;;-0.28;73.69;99914.22;10328477;28;20046;-80
2022/12/11 15:20:01;;;;;;;39.78;17.15;;;;;;;-0.22;74.06;99913.97;10344527;28;20054;-80
2022/12/11 15:25:05;;;;;;;39.72;17.33;;;;;;;-0.17;74.27;99925.16;10360418;28;20050;-79
2022/12/11 15:30:26;;;;;;;39.00;17.45;;;;;;;-0.19;74.40;99926.16;10336650;28;20121;-79
2022/12/11 15:35:31;;;;;;;36.70;17.45;;;;;;;-0.18;74.30;99925.25;10337187;28;20058;-79
2022/12/11 15:40:34;;;;;;;46.75;19.92;;;;;;;-0.32;74.21;99929.34;10324855;28;20595;-79
2022/12/11 15:45:37;;;;;;;34.30;17.40;;;;;;;-0.30;74.93;99934.56;10330932;28;20073;-80
2022/12/11 15:50:41;;;;;;;48.97;19.27;;;;;;;-0.24;74.99;99929.00;10327247;28;20092;-80
2022/12/11 15:55:44;;;;;;;45.70;20.05;;;;;;;-0.29;75.07;99916.00;10337952;28;20546;-80
2022/12/11 16:00:47;;;;;;;59.97;29.80;;;;;;;-0.28;75.19;99922.97;10345614;28;21762;-81
2022/12/11 16:05:52;;;;;;;40.92;17.33;;;;;;;-0.38;75.03;99926.13;10327736;28;20049;-80
2022/12/11 16:10:56;;;;;;;41.78;19.20;;;;;;;-0.47;75.08;99919.41;10325052;28;20057;-81
2022/12/11 16:15:59;;;;;;;60.80;27.20;;;;;;;-0.41;75.42;99918.31;10340845;28;20116;-80
2022/12/11 16:21:06;;;;;;;45.45;21.65;;;;;;;-0.34;74.85;99932.97;10349519;28;20126;-81
2022/12/11 16:26:09;;;;;;;36.83;17.23;;;;;;;-0.51;74.69;99938.97;10351714;28;20052;-80
2022/12/11 16:31:12;;;;;;;43.17;18.08;;;;;;;-0.66;75.20;99939.59;10342690;28;20038;-81
2022/12/11 16:36:18;;;;;;;36.50;18.25;;;;;;;-0.68;75.83;99934.41;10344647;28;20111;-83
2022/12/11 16:41:22;;;;;;;40.08;18.52;;;;;;;-0.70;75.67;99933.59;10352907;28;20150;-80
2022/12/11 16:46:25;;;;;;;38.33;17.23;;;;;;;-0.87;75.93;99934.28;10351741;28;20057;-80
2022/12/11 16:51:29;;;;;;;38.67;18.80;;;;;;;-0.74;75.87;99935.50;10351741;28;20053;-81
2022/12/11 16:56:32;;;;;;;36.25;16.42;;;;;;;-0.79;75.94;99928.72;10351603;28;21229;-81
2022/12/11 17:01:35;;;;;;;38.63;18.77;;;;;;;-0.94;76.69;99940.72;10348783;28;20689;-79
2022/12/11 17:06:40;;;;;;;50.92;22.52;;;;;;;-0.79;76.66;99926.94;10376621;28;20073;-80
2022/12/11 17:11:42;;;;;;;44.97;20.73;;;;;;;-0.64;76.43;99932.47;10357851;28;20072;-81
2022/12/11 17:16:46;;;;;;;41.00;18.45;;;;;;;-0.70;75.99;99924.84;10358012;28;20072;-80
2022/12/11 17:21:52;;;;;;;42.83;19.33;;;;;;;-0.69;76.09;99926.53;10352812;28;20049;-80
2022/12/11 17:26:55;;;;;;;40.67;18.65;;;;;;;-0.67;75.66;99927.34;10353388;28;20128;-80
2022/12/11 17:31:58;;;;;;;40.67;18.75;;;;;;;-0.59;75.89;99918.19;10352242;28;20057;-81
2022/12/11 17:37:02;;;;;;;43.33;19.85;;;;;;;-0.60;75.42;99927.03;10355755;28;20046;-79
2022/12/11 17:42:05;;;;;;;42.47;20.80;;;;;;;-0.50;75.51;99923.06;10371166;28;20526;-81
2022/12/11 17:47:10;;;;;;;48.17;21.90;;;;;;;-0.43;75.15;99930.72;10356768;28;20047;-80
2022/12/11 17:52:14;;;;;;;49.38;21.83;;;;;;;-0.36;75.01;99927.72;10355308;28;20851;-81
2022/12/11 17:57:17;;;;;;;41.40;19.10;;;;;;;-0.64;74.02;99924.56;10330149;28;20050;-81
2022/12/11 18:02:20;;;;;;;41.67;19.77;;;;;;;-0.61;74.88;99933.19;10372040;28;20463;-80
2022/12/11 18:07:25;;;;;;;38.42;17.83;;;;;;;-0.45;75.01;99927.28;10369367;28;20038;-81
2022/12/11 18:12:29;;;;;;;39.13;18.52;;;;;;;-0.53;74.87;99919.69;10341328;28;20052;-81
2022/12/11 18:17:33;;;;;;;42.95;19.50;;;;;;;-0.51;74.88;99917.84;10322366;28;20136;-81
2022/12/11 18:22:37;;;;;;;40.97;18.73;;;;;;;-0.43;74.76;99923.66;10358650;28;20050;-81
2022/12/11 18:27:41;;;;;;;46.25;20.60;;;;;;;-0.36;75.05;99919.81;10336168;28;20050;-79
2022/12/11 18:32:45;;;;;;;46.05;20.02;;;;;;;-0.29;75.02;99925.72;10346266;28;20057;-81
2022/12/11 18:37:49;;;;;;;45.92;24.98;;;;;;;-0.26;74.78;99924.72;10352454;28;20423;-81
2022/12/11 18:42:52;;;;;;;41.30;20.92;;;;;;;-0.45;74.90;99929.94;10350887;28;20132;-81
2022/12/11 18:47:55;;;;;;;44.47;21.52;;;;;;;-0.37;74.95;99920.75;10346796;28;20470;-82
2022/12/11 18:53:02;;;;;;;50.42;24.70;;;;;;;-0.35;74.83;99918.91;10364824;28;20046;-81
2022/12/11 18:58:05;;;;;;;49.63;25.15;;;;;;;-0.31;75.04;99915.19;10348649;28;20046;-81
2022/12/11 19:03:08;;;;;;;59.38;25.52;;;;;;;-0.27;75.14;99913.31;10350260;28;20061;-81
2022/12/11 19:08:15;;;;;;;56.03;25.83;;;;;;;-0.22;75.11;99913.09;10350877;28;20073;-81
2022/12/11 19:13:17;;;;;;;49.60;25.70;;;;;;;-0.28;75.16;99917.69;10323030;28;20061;-81
2022/12/11 19:18:20;;;;;;;85.40;36.17;;;;;;;-0.30;74.70;99922.22;10360412;28;20054;-81
2022/12/11 19:23:24;;;;;;;57.55;25.77;;;;;;;-0.29;74.76;99916.00;10351637;28;20050;-82
2022/12/11 19:28:27;;;;;;;60.60;29.45;;;;;;;-0.31;75.03;99924.91;10329045;28;20046;-81
2022/12/11 19:33:30;;;;;;;68.05;31.08;;;;;;;-0.34;74.71;99927.69;10344169;28;20588;-81
2022/12/11 19:38:34;;;;;;;84.03;36.25;;;;;;;-0.33;74.49;99926.75;10346590;28;20417;-80
2022/12/11 19:43:37;;;;;;;49.17;24.55;;;;;;;-0.24;74.91;99920.22;10338257;28;20058;-81
2022/12/11 19:48:40;;;;;;;48.80;23.73;;;;;;;-0.26;74.73;99927.34;10349515;28;20050;-80
2022/12/11 19:53:46;;;;;;;148.52;57.60;;;;;;;-0.29;74.44;99917.78;10372488;28;20395;-81
2022/12/11 19:58:49;;;;;;;58.15;25.50;;;;;;;-0.36;74.36;99926.88;10348210;28;20057;-82
2022/12/11 20:03:53;;;;;;;56.25;23.40;;;;;;;-0.29;74.58;99926.56;10361181;28;20054;-80
2022/12/11 20:08:58;;;;;;;64.07;25.50;;;;;;;-0.25;74.59;99929.91;10348184;28;21698;-80
2022/12/11 20:14:01;;;;;;;55.90;23.27;;;;;;;-0.23;74.75;99922.78;10328653;28;20054;-81
2022/12/11 20:19:04;;;;;;;62.50;24.92;;;;;;;-0.24;74.35;99920.22;10357019;28;20118;-81
2022/12/11 20:24:09;;;;;;;57.17;24.52;;;;;;;-0.26;74.66;99920.28;10335035;28;20137;-82
2022/12/11 20:29:12;;;;;;;65.43;28.38;;;;;;;-0.29;74.38;99928.34;10331004;28;20054;-81
2022/12/11 20:34:15;;;;;;;64.55;26.40;;;;;;;-0.30;74.37;99930.13;10360786;28;20615;-81
2022/12/11 20:39:19;;;;;;;56.17;23.08;;;;;;;-0.49;74.23;99939.75;10356814;28;20136;-79
2022/12/11 20:44:22;;;;;;;58.03;24.48;;;;;;;-0.52;74.56;99945.19;10360313;28;20061;-80
2022/12/11 20:49:25;;;;;;;53.47;22.95;;;;;;;-0.46;75.07;99936.13;10343805;28;20523;-81
2022/12/11 20:54:29;;;;;;;62.10;24.73;;;;;;;-0.44;75.13;99940.41;10359525;28;20046;-80
2022/12/11 20:59:32;;;;;;;58.97;23.35;;;;;;;-0.52;74.74;99937.25;10345554;28;20049;-80
2022/12/11 21:04:38;;;;;;;61.28;24.80;;;;;;;-0.64;74.99;99943.88;10340295;28;21174;-81
2022/12/11 21:09:42;;;;;;;64.40;24.77;;;;;;;-0.56;75.22;99943.56;10351188;28;20057;-78
2022/12/11 21:14:45;;;;;;;56.40;23.42;;;;;;;-0.47;75.25;99937.91;10343569;28;20132;-78
2022/12/11 21:19:49;;;;;;;61.95;22.48;;;;;;;-0.43;75.60;99946.56;10354683;28;20165;-78
2022/12/11 21:24:53;;;;;;;61.40;22.83;;;;;;;-0.37;75.28;99947.16;10361714;28;20172;-78
2022/12/11 21:29:56;;;;;;;67.97;25.80;;;;;;;-0.33;75.20;99947.84;10365287;28;20042;-81
2022/12/11 21:34:59;;;;;;;63.35;24.45;;;;;;;-0.35;75.10;99949.72;10331543;28;20050;-80
2022/12/11 21:40:03;;;;;;;67.25;26.60;;;;;;;-0.29;75.13;99945.03;10348906;28;20549;-80
2022/12/11 21:45:07;;;;;;;68.30;26.05;;;;;;;-0.30;74.95;99943.34;10338900;28;20054;-79
2022/12/11 21:50:30;;;;;;;69.05;26.00;;;;;;;-0.34;74.98;99933.81;10315020;28;20096;-78
2022/12/11 21:55:34;;;;;;;70.10;25.73;;;;;;;-0.50;75.09;99936.25;10362410;28;20593;-80
2022/12/11 22:00:37;;;;;;;78.88;28.83;;;;;;;-0.53;74.92;99940.81;10384666;28;20053;-78
2022/12/11 22:05:40;;;;;;;75.28;25.83;;;;;;;-0.51;74.83;99942.44;10398405;28;20570;-80
2022/12/11 22:10:44;;;;;;;74.28;24.75;;;;;;;-0.52;74.89;99947.81;10385276;28;20052;-80
2022/12/11 22:15:47;;;;;;;73.47;25.25;;;;;;;-0.59;74.63;99946.34;10374587;28;20489;-80
2022/12/11 22:20:50;;;;;;;72.47;24.27;;;;;;;-0.61;74.25;99956.09;10391298;28;20049;-81
2022/12/11 22:25:55;;;;;;;79.32;27.42;;;;;;;-0.60;74.41;99955.19;10389787;28;20117;-79
2022/12/11 22:30:58;;;;;;;83.30;25.30;;;;;;;-0.60;74.24;99955.19;10381074;28;20154;-81
2022/12/11 22:36:01;;;;;;;77.60;25.60;;;;;;;-0.53;74.36;99952.19;10376287;28;20043;-81
2022/12/11 22:41:10;;;;;;;78.65;24.75;;;;;;;-0.53;73.93;99956.63;10354646;28;20570;-81
2022/12/11 22:46:16;;;;;;;77.70;26.10;;;;;;;-0.53;74.09;99957.47;10362500;28;20125;-80
2022/12/11 22:51:19;;;;;;;77.82;26.25;;;;;;;-0.52;73.75;99939.91;10366383;28;20468;-81
2022/12/11 22:56:23;;;;;;;73.47;25.77;;;;;;;-0.54;73.82;99947.00;10363166;28;20129;-80
2022/12/11 23:01:27;;;;;;;76.47;26.23;;;;;;;-0.61;74.01;99941.13;10379772;28;20113;-80
2022/12/11 23:06:30;;;;;;;78.53;26.40;;;;;;;-0.64;73.91;99950.94;10349489;28;20473;-80
2022/12/11 23:11:37;;;;;;;76.95;25.38;;;;;;;-0.67;74.19;99944.00;10353644;28;20052;-80
2022/12/11 23:16:40;;;;;;;71.75;25.45;;;;;;;-0.66;74.44;99952.78;10351744;28;20039;-81
2022/12/11 23:21:43;;;;;;;74.57;25.73;;;;;;;-0.58;74.43;99955.97;10356192;28;20038;-80
2022/12/11 23:26:47;;;;;;;73.55;25.27;;;;;;;-0.56;74.58;99954.97;10353544;28;20069;-80